Time;durP1;ratioP1;P1;durP2;ratioP2;P2;SDS_P1;SDS_P2;PMS_P1;PMS_P2;Temp;Humidity;BMP_temperature;BMP_pressure;BME280_temperature;BME280_humidity;BME280_pressure;Samples;Min_cycle;Max_cycle;Signal;HPM_P1;HPM_P2
2022/07/01 00:01:57;;;;;;;0.10;0.10;;;21.90;63.10;;;;;;5056070;28;20040;-21
2022/07/01 00:04:26;;;;;;;0.10;0.10;;;21.90;63.00;;;;;;5063508;28;20094;-22
2022/07/01 00:06:55;;;;;;;0.10;0.10;;;22.00;62.90;;;;;;5046161;28;20054;-21
2022/07/01 00:09:21;;;;;;;0.10;0.10;;;21.90;63.60;;;;;;5044009;28;20095;-20
2022/07/01 00:11:46;;;;;;;0.00;0.00;;;21.90;63.80;;;;;;5045864;28;20049;-19
2022/07/01 00:14:12;;;;;;;0.10;0.10;;;21.90;62.90;;;;;;5051904;28;20048;-20
2022/07/01 00:16:38;;;;;;;0.00;0.00;;;21.90;62.70;;;;;;5052835;28;20118;-20
2022/07/01 00:19:04;;;;;;;0.20;0.10;;;22.00;62.70;;;;;;5053007;28;20044;-20
2022/07/01 00:21:29;;;;;;;2.05;0.10;;;22.00;62.70;;;;;;5051611;28;20090;-19
2022/07/01 00:23:55;;;;;;;0.00;0.00;;;22.00;62.50;;;;;;5038629;28;20418;-21
2022/07/01 00:26:20;;;;;;;0.00;0.00;;;21.90;62.60;;;;;;5060936;28;20040;-19
2022/07/01 00:28:46;;;;;;;0.03;0.00;;;22.00;62.60;;;;;;5055003;28;20048;-22
2022/07/01 00:31:12;;;;;;;0.08;0.08;;;21.90;62.60;;;;;;5052344;28;20417;-21
2022/07/01 00:33:37;;;;;;;0.10;0.10;;;21.90;62.60;;;;;;5044731;28;20041;-24
2022/07/01 00:36:03;;;;;;;0.10;0.10;;;21.90;62.60;;;;;;5055116;28;20503;-20
2022/07/01 00:38:28;;;;;;;0.10;0.08;;;21.90;62.60;;;;;;5059875;28;20080;-18
2022/07/01 00:40:54;;;;;;;0.00;0.00;;;21.90;62.60;;;;;;5064721;28;20036;-20
2022/07/01 00:43:23;;;;;;;0.30;0.10;;;22.00;62.40;;;;;;5061320;28;20097;-20
2022/07/01 00:45:48;;;;;;;0.10;0.10;;;22.00;62.40;;;;;;5063250;28;20040;-22
2022/07/01 00:48:14;;;;;;;0.05;0.05;;;21.90;62.40;;;;;;5049102;28;20549;-20
2022/07/01 00:50:39;;;;;;;0.00;0.00;;;21.90;62.40;;;;;;5055048;28;20497;-22
2022/07/01 00:53:05;;;;;;;0.10;0.10;;;22.00;62.50;;;;;;5053718;28;20087;-22
2022/07/01 00:55:31;;;;;;;0.20;0.10;;;22.00;62.30;;;;;;5061035;28;20441;-20
2022/07/01 00:57:57;;;;;;;0.10;0.00;;;22.00;62.30;;;;;;5064388;28;20063;-20
2022/07/01 01:00:23;;;;;;;0.10;0.10;;;22.00;62.30;;;;;;5059994;28;20655;-20
2022/07/01 01:02:49;;;;;;;0.05;0.05;;;22.00;63.20;;;;;;5044542;28;20072;-23
2022/07/01 01:05:14;;;;;;;0.00;0.00;;;21.90;62.40;;;;;;5057311;28;20064;-20
2022/07/01 01:07:40;;;;;;;0.10;0.10;;;22.00;62.40;;;;;;5033758;28;20511;-20
2022/07/01 01:10:06;;;;;;;0.10;0.10;;;22.00;62.30;;;;;;5055889;28;20048;-20
2022/07/01 01:12:31;;;;;;;0.13;0.10;;;22.00;62.30;;;;;;5054759;28;20422;-22
2022/07/01 01:14:57;;;;;;;0.20;0.10;;;21.90;62.10;;;;;;5040025;28;20048;-21
2022/07/01 01:17:23;;;;;;;0.00;0.00;;;22.00;62.30;;;;;;5042723;28;20051;-20
2022/07/01 01:19:49;;;;;;;0.35;0.15;;;21.90;62.30;;;;;;5041815;28;20088;-20
2022/07/01 01:22:15;;;;;;;0.17;0.08;;;21.90;62.30;;;;;;5043372;28;20446;-21
2022/07/01 01:24:41;;;;;;;0.55;0.30;;;21.90;62.40;;;;;;5058429;28;20060;-20
2022/07/01 01:27:07;;;;;;;0.10;0.10;;;21.90;62.40;;;;;;5055224;28;20077;-20
2022/07/01 01:29:33;;;;;;;0.00;0.00;;;21.90;62.20;;;;;;5064887;28;20033;-25
2022/07/01 01:31:59;;;;;;;0.05;0.05;;;21.90;62.30;;;;;;5066863;28;20040;-20
2022/07/01 01:34:25;;;;;;;0.03;0.03;;;21.90;62.20;;;;;;5051929;28;20094;-20
2022/07/01 01:36:51;;;;;;;0.10;0.10;;;21.90;62.20;;;;;;5064934;28;20099;-20
2022/07/01 01:39:17;;;;;;;0.15;0.15;;;21.90;62.20;;;;;;5051032;28;20567;-20
2022/07/01 01:41:43;;;;;;;0.10;0.03;;;21.90;62.10;;;;;;5041296;28;20041;-18
2022/07/01 01:44:09;;;;;;;0.43;0.15;;;22.00;62.20;;;;;;5041794;28;20041;-21
2022/07/01 01:46:34;;;;;;;0.13;0.10;;;21.90;62.10;;;;;;5038538;28;20041;-21
2022/07/01 01:49:00;;;;;;;0.10;0.10;;;21.90;62.30;;;;;;5040074;28;20064;-24
2022/07/01 01:51:26;;;;;;;0.10;0.10;;;21.90;62.30;;;;;;5034543;28;20045;-21
2022/07/01 01:53:52;;;;;;;0.10;0.10;;;21.90;62.20;;;;;;5041712;28;20076;-20
2022/07/01 01:56:17;;;;;;;0.85;0.10;;;21.90;62.10;;;;;;5057797;28;20130;-19
2022/07/01 01:58:43;;;;;;;1.35;0.10;;;21.90;62.10;;;;;;5057833;28;20045;-21
2022/07/01 02:01:10;;;;;;;0.10;0.10;;;21.90;62.10;;;;;;5045171;28;20033;-20
2022/07/01 02:03:37;;;;;;;0.30;0.10;;;21.90;62.20;;;;;;5063605;28;20107;-20
2022/07/01 02:06:03;;;;;;;0.17;0.05;;;21.90;62.20;;;;;;5061730;28;20033;-23
2022/07/01 02:08:29;;;;;;;0.08;0.08;;;21.90;62.10;;;;;;5051436;28;20106;-19
2022/07/01 02:10:55;;;;;;;0.10;0.10;;;21.90;61.90;;;;;;5063484;28;20049;-20
2022/07/01 02:13:20;;;;;;;0.20;0.10;;;21.90;62.10;;;;;;5046480;28;20044;-20
2022/07/01 02:15:46;;;;;;;0.00;0.00;;;21.90;62.00;;;;;;5051714;28;20038;-20
2022/07/01 02:18:11;;;;;;;0.20;0.10;;;21.90;62.00;;;;;;5051285;28;20032;-22
2022/07/01 02:20:37;;;;;;;0.22;0.10;;;21.90;62.10;;;;;;5061919;28;20040;-23
2022/07/01 02:23:02;;;;;;;0.10;0.10;;;21.80;62.20;;;;;;5055478;28;20128;-19
2022/07/01 02:25:28;;;;;;;0.10;0.08;;;21.80;62.20;;;;;;5053256;28;20041;-20
2022/07/01 02:27:54;;;;;;;0.08;0.00;;;21.80;62.10;;;;;;5065895;28;20040;-21
2022/07/01 02:30:19;;;;;;;0.05;0.00;;;21.80;62.80;;;;;;5051709;28;20048;-20
2022/07/01 02:32:45;;;;;;;0.52;0.10;;;21.80;62.10;;;;;;5053383;28;20455;-20
2022/07/01 02:35:10;;;;;;;0.10;0.10;;;21.80;62.10;;;;;;5053262;28;20119;-20
2022/07/01 02:37:36;;;;;;;0.10;0.10;;;21.80;62.10;;;;;;5060314;28;20651;-20
2022/07/01 02:40:02;;;;;;;0.10;0.10;;;21.80;62.10;;;;;;5057918;28;20048;-21
2022/07/01 02:42:34;;;;;;;0.10;0.10;;;21.80;62.20;;;;;;5051279;28;20040;-21
2022/07/01 02:45:00;;;;;;;0.10;0.10;;;21.80;62.20;;;;;;5057003;28;20069;-22
2022/07/01 02:47:30;;;;;;;0.00;0.00;;;21.80;62.20;;;;;;5060846;28;20560;-20
2022/07/01 02:49:55;;;;;;;0.20;0.10;;;21.80;62.10;;;;;;5059317;28;20033;-25
2022/07/01 02:52:21;;;;;;;0.10;0.10;;;21.80;62.20;;;;;;5055409;28;20052;-21
2022/07/01 02:54:47;;;;;;;0.30;0.25;;;21.80;62.10;;;;;;5053109;28;20393;-22
2022/07/01 02:57:12;;;;;;;0.00;0.00;;;21.80;62.10;;;;;;5055480;28;20497;-20
2022/07/01 02:59:38;;;;;;;0.03;0.03;;;21.80;62.00;;;;;;5060907;28;20486;-23
2022/07/01 03:02:04;;;;;;;0.00;0.00;;;21.80;62.10;;;;;;5052011;28;20453;-21
2022/07/01 03:04:30;;;;;;;0.10;0.10;;;21.80;62.10;;;;;;5051360;28;20064;-19
2022/07/01 03:06:55;;;;;;;0.55;0.10;;;21.80;62.10;;;;;;5037495;28;20072;-20
2022/07/01 03:09:21;;;;;;;0.10;0.10;;;21.80;61.90;;;;;;5048286;28;20071;-20
2022/07/01 03:11:46;;;;;;;0.00;0.00;;;21.80;62.00;;;;;;5058242;28;20064;-22
2022/07/01 03:14:12;;;;;;;0.00;0.00;;;21.80;62.00;;;;;;5059661;28;20044;-20
2022/07/01 03:16:37;;;;;;;0.13;0.10;;;21.70;62.00;;;;;;5051079;28;20040;-21
2022/07/01 03:19:03;;;;;;;0.10;0.10;;;21.70;62.10;;;;;;5056950;28;20047;-20
2022/07/01 03:21:29;;;;;;;0.10;0.10;;;21.70;62.00;;;;;;5050906;28;20059;-20
2022/07/01 03:23:55;;;;;;;0.00;0.00;;;21.80;62.10;;;;;;5055091;28;20052;-20
2022/07/01 03:26:21;;;;;;;0.20;0.00;;;21.70;62.00;;;;;;5057207;28;20048;-20
2022/07/01 03:28:47;;;;;;;0.10;0.10;;;21.70;62.00;;;;;;5053032;28;20428;-20
2022/07/01 03:31:12;;;;;;;0.00;0.00;;;21.70;62.00;;;;;;5058495;28;20052;-21
2022/07/01 03:33:38;;;;;;;0.10;0.10;;;21.70;61.90;;;;;;5048531;28;20501;-19
2022/07/01 03:36:03;;;;;;;0.10;0.00;;;21.70;61.90;;;;;;5056105;28;20129;-20
2022/07/01 03:38:29;;;;;;;0.10;0.10;;;21.70;61.90;;;;;;5058725;28;20044;-20
2022/07/01 03:40:54;;;;;;;0.45;0.10;;;21.70;61.90;;;;;;5058556;28;20041;-23
2022/07/01 03:43:20;;;;;;;0.17;0.05;;;21.70;61.90;;;;;;5045889;28;20052;-20
2022/07/01 03:45:46;;;;;;;0.10;0.00;;;21.70;62.00;;;;;;5046388;28;20045;-20
2022/07/01 03:48:12;;;;;;;0.00;0.00;;;21.70;61.90;;;;;;5045860;28;20060;-20
2022/07/01 03:50:37;;;;;;;0.03;0.03;;;21.70;62.00;;;;;;5043764;28;20041;-21
2022/07/01 03:55:47;;;;;;;0.13;0.08;;;21.70;61.90;;;;;;5063525;28;20433;-21
2022/07/01 03:58:13;;;;;;;0.10;0.08;;;21.70;62.70;;;;;;5060708;28;20045;-20
2022/07/01 04:00:38;;;;;;;0.10;0.10;;;21.70;61.80;;;;;;5048770;28;20477;-20
2022/07/01 04:03:04;;;;;;;0.57;0.05;;;21.70;61.90;;;;;;5058945;28;20045;-20
2022/07/01 04:05:35;;;;;;;0.20;0.20;;;21.70;61.90;;;;;;5041345;28;20132;-22
2022/07/01 04:08:04;;;;;;;0.20;0.17;;;21.70;61.90;;;;;;5092521;28;20049;-25
2022/07/01 04:10:32;;;;;;;0.03;0.03;;;21.70;62.60;;;;;;5060129;28;20123;-21
2022/07/01 04:12:59;;;;;;;0.00;0.00;;;21.70;62.00;;;;;;5041898;28;20048;-21
2022/07/01 04:15:25;;;;;;;0.10;0.10;;;21.70;61.90;;;;;;5044774;28;20043;-20
2022/07/01 04:17:51;;;;;;;0.10;0.10;;;21.70;61.90;;;;;;5060037;28;22192;-20
2022/07/01 04:20:16;;;;;;;0.10;0.10;;;21.60;61.90;;;;;;5043593;28;20114;-21
2022/07/01 04:22:42;;;;;;;0.32;0.00;;;21.70;61.70;;;;;;5052242;28;20042;-20
2022/07/01 04:25:08;;;;;;;0.10;0.10;;;21.70;61.80;;;;;;5061394;28;20112;-20
2022/07/01 04:27:33;;;;;;;0.10;0.10;;;21.70;61.90;;;;;;5048206;28;20071;-21
2022/07/01 04:30:02;;;;;;;0.08;0.08;;;21.60;61.80;;;;;;5052515;28;20060;-23
2022/07/01 04:32:27;;;;;;;0.10;0.10;;;21.60;61.80;;;;;;5061922;28;20102;-21
2022/07/01 04:34:53;;;;;;;0.20;0.13;;;21.60;61.90;;;;;;5061794;28;20447;-20
2022/07/01 04:37:19;;;;;;;0.10;0.10;;;21.60;62.80;;;;;;5058946;28;20124;-20
2022/07/01 04:39:45;;;;;;;0.00;0.00;;;21.60;62.00;;;;;;5059256;28;20094;-19
2022/07/01 04:42:10;;;;;;;0.00;0.00;;;21.60;62.00;;;;;;5059580;28;20040;-21
2022/07/01 04:44:36;;;;;;;3.08;0.10;;;21.60;61.90;;;;;;5064530;28;20045;-20
2022/07/01 04:47:03;;;;;;;0.10;0.08;;;21.60;61.80;;;;;;5051090;28;20041;-23
2022/07/01 04:49:28;;;;;;;0.00;0.00;;;21.60;61.80;;;;;;5054071;28;20072;-21
2022/07/01 04:51:54;;;;;;;0.30;0.10;;;21.60;62.70;;;;;;5041636;28;20089;-21
2022/07/01 04:54:20;;;;;;;0.10;0.03;;;21.60;61.70;;;;;;5038860;28;20039;-21
2022/07/01 04:56:45;;;;;;;0.03;0.03;;;21.60;62.00;;;;;;5060205;28;20097;-20
2022/07/01 04:59:12;;;;;;;0.10;0.05;;;21.50;62.10;;;;;;5058680;28;20036;-20
2022/07/01 05:01:38;;;;;;;0.10;0.10;;;21.50;61.90;;;;;;5067134;28;20068;-18
2022/07/01 05:04:03;;;;;;;0.20;0.20;;;21.50;62.10;;;;;;5057030;28;20091;-19
2022/07/01 05:06:29;;;;;;;0.10;0.10;;;21.50;62.20;;;;;;5053424;28;20045;-21
2022/07/01 05:08:55;;;;;;;0.10;0.10;;;21.50;62.20;;;;;;5054608;28;20068;-20
2022/07/01 05:11:20;;;;;;;0.10;0.05;;;21.50;62.10;;;;;;5057627;28;20045;-21
2022/07/01 05:13:46;;;;;;;0.10;0.10;;;21.50;62.10;;;;;;5045020;28;20041;-21
2022/07/01 05:16:12;;;;;;;1.73;0.03;;;21.50;62.10;;;;;;5042693;28;20041;-20
2022/07/01 05:24:28;;;;;;;0.00;0.00;;;21.50;62.70;;;;;;5023272;28;20053;-21
2022/07/01 05:26:53;;;;;;;0.15;0.15;;;21.50;61.90;;;;;;5022522;28;20668;-21
2022/07/01 05:29:19;;;;;;;0.08;0.08;;;21.50;62.80;;;;;;5026473;28;20045;-20
2022/07/01 05:31:44;;;;;;;0.00;0.00;;;21.50;62.10;;;;;;5022720;28;20065;-18
2022/07/01 05:34:11;;;;;;;0.10;0.00;;;21.50;62.00;;;;;;5026122;28;20045;-19
2022/07/01 05:36:36;;;;;;;0.00;0.00;;;21.50;62.00;;;;;;5027646;28;20117;-20
2022/07/01 05:39:02;;;;;;;0.38;0.10;;;21.50;61.90;;;;;;5023282;28;20136;-21
2022/07/01 05:41:28;;;;;;;0.00;0.00;;;21.60;61.90;;;;;;5021740;28;20069;-20
2022/07/01 05:43:54;;;;;;;0.00;0.00;;;21.50;61.90;;;;;;5023816;28;20050;-23
2022/07/01 05:46:19;;;;;;;0.10;0.10;;;21.50;62.10;;;;;;5024175;28;20048;-20
2022/07/01 05:48:45;;;;;;;0.20;0.10;;;21.50;62.00;;;;;;5015911;28;20121;-21
2022/07/01 05:51:11;;;;;;;0.00;0.00;;;21.50;61.90;;;;;;5019643;28;23192;-20
2022/07/01 05:53:36;;;;;;;0.52;0.10;;;21.50;62.00;;;;;;5019217;28;20051;-21
2022/07/01 05:56:02;;;;;;;0.20;0.20;;;21.50;62.80;;;;;;5054736;28;20049;-20
2022/07/01 05:58:28;;;;;;;0.10;0.10;;;21.50;62.00;;;;;;5064623;28;20239;-20
2022/07/01 06:00:54;;;;;;;0.43;0.10;;;21.50;62.10;;;;;;5053171;28;20063;-20
2022/07/01 06:03:19;;;;;;;0.13;0.10;;;21.50;62.10;;;;;;5053404;28;20517;-18
2022/07/01 06:05:45;;;;;;;0.32;0.10;;;21.50;62.10;;;;;;5044069;28;20064;-19
2022/07/01 06:08:10;;;;;;;0.47;0.17;;;21.50;62.00;;;;;;5041479;28;20052;-20
2022/07/01 06:10:36;;;;;;;0.00;0.00;;;21.50;62.90;;;;;;5047543;28;20654;-20
2022/07/01 06:13:02;;;;;;;0.10;0.10;;;21.50;62.10;;;;;;5047110;28;20060;-22
2022/07/01 06:15:27;;;;;;;0.10;0.10;;;21.50;62.30;;;;;;5063560;28;20041;-21
2022/07/01 06:17:53;;;;;;;0.20;0.10;;;21.50;62.30;;;;;;5063804;28;20048;-20
2022/07/01 06:20:19;;;;;;;0.10;0.00;;;21.50;62.10;;;;;;5057223;28;20099;-20
2022/07/01 06:22:44;;;;;;;0.13;0.10;;;21.50;62.70;;;;;;5058006;28;20461;-20
2022/07/01 06:25:10;;;;;;;0.10;0.10;;;21.50;61.80;;;;;;5049730;28;20052;-20
2022/07/01 06:27:39;;;;;;;0.80;0.05;;;21.50;62.00;;;;;;5063100;28;20261;-20
2022/07/01 06:30:05;;;;;;;0.00;0.00;;;21.50;61.90;;;;;;5051490;28;20049;-22
2022/07/01 06:32:31;;;;;;;0.22;0.00;;;21.50;62.20;;;;;;5053246;28;20151;-19
2022/07/01 06:34:56;;;;;;;0.40;0.20;;;21.50;62.10;;;;;;5062187;28;20127;-21
2022/07/01 06:37:22;;;;;;;0.10;0.10;;;21.50;62.20;;;;;;5042715;28;20049;-20
2022/07/01 06:39:48;;;;;;;0.00;0.00;;;21.50;62.60;;;;;;5044556;28;20154;-20
2022/07/01 06:42:13;;;;;;;4.15;0.50;;;21.50;63.30;;;;;;5044039;28;20041;-20
2022/07/01 06:44:39;;;;;;;3.13;0.35;;;21.40;65.00;;;;;;5045577;28;20111;-18
2022/07/01 06:47:04;;;;;;;1.08;0.38;;;21.40;64.30;;;;;;5044662;28;20045;-19
2022/07/01 06:49:30;;;;;;;1.63;0.28;;;21.40;64.60;;;;;;5045936;28;20045;-18
2022/07/01 06:51:56;;;;;;;2.50;0.30;;;21.40;64.40;;;;;;5045390;28;20390;-18
2022/07/01 06:54:21;;;;;;;1.98;0.30;;;21.40;64.60;;;;;;5044763;28;20075;-19
2022/07/01 06:56:47;;;;;;;0.28;0.28;;;21.40;64.30;;;;;;5046627;28;20068;-20
2022/07/01 06:59:14;;;;;;;3.15;0.50;;;21.50;64.50;;;;;;5043814;28;20132;-18
2022/07/01 07:01:40;;;;;;;1.35;0.77;;;21.50;65.00;;;;;;5045970;28;20103;-19
2022/07/01 07:04:06;;;;;;;2.25;1.05;;;21.50;65.30;;;;;;5046119;28;20049;-18
2022/07/01 07:06:31;;;;;;;1.17;0.90;;;21.50;65.60;;;;;;5046700;28;20067;-18
2022/07/01 07:08:57;;;;;;;1.20;0.93;;;21.50;65.50;;;;;;5055625;28;20497;-18
2022/07/01 07:11:23;;;;;;;5.28;0.95;;;21.50;65.10;;;;;;5037504;28;20049;-18
2022/07/01 07:13:48;;;;;;;2.30;1.48;;;21.50;65.10;;;;;;5054375;28;20493;-21
2022/07/01 07:16:14;;;;;;;1.00;0.80;;;21.50;65.30;;;;;;5062459;28;20044;-20
2022/07/01 07:18:39;;;;;;;2.28;0.90;;;21.50;65.10;;;;;;5050591;28;20050;-21
2022/07/01 07:21:05;;;;;;;1.00;0.82;;;21.50;65.20;;;;;;5048768;28;20409;-19
2022/07/01 07:23:31;;;;;;;2.15;0.70;;;21.50;65.00;;;;;;5055798;28;20131;-21
2022/07/01 07:25:56;;;;;;;3.50;1.17;;;21.50;65.20;;;;;;5047709;28;20048;-19
2022/07/01 07:28:22;;;;;;;1.33;0.90;;;21.50;65.00;;;;;;5048386;28;20057;-23
2022/07/01 07:30:47;;;;;;;2.00;0.80;;;21.50;64.80;;;;;;5055044;28;20089;-20
2022/07/01 07:33:13;;;;;;;1.63;0.80;;;21.50;64.90;;;;;;5049865;28;20061;-20
2022/07/01 07:35:39;;;;;;;1.30;0.80;;;21.50;64.50;;;;;;5042887;28;20128;-21
2022/07/01 07:38:04;;;;;;;1.08;0.50;;;21.60;64.00;;;;;;5045867;28;20401;-21
2022/07/01 07:40:30;;;;;;;1.25;0.60;;;21.60;63.60;;;;;;5057274;28;20060;-20
2022/07/01 07:42:55;;;;;;;1.35;0.52;;;21.70;63.50;;;;;;5036704;28;20048;-24
2022/07/01 07:45:21;;;;;;;1.67;0.70;;;21.70;63.50;;;;;;5045490;28;20044;-21
2022/07/01 07:47:48;;;;;;;1.92;0.93;;;21.60;63.40;;;;;;5033403;28;20047;-19
2022/07/01 07:50:14;;;;;;;0.85;0.60;;;21.60;63.60;;;;;;5032391;28;20037;-19
2022/07/01 07:52:39;;;;;;;1.27;0.70;;;21.70;63.60;;;;;;5034917;28;20106;-22
2022/07/01 07:55:06;;;;;;;1.73;0.40;;;21.70;63.40;;;;;;5031985;28;20693;-21
2022/07/01 07:57:31;;;;;;;1.45;0.55;;;21.70;63.20;;;;;;5030347;28;20045;-21
2022/07/01 07:59:57;;;;;;;4.32;0.55;;;21.70;63.20;;;;;;5031038;28;20417;-21
2022/07/01 08:02:23;;;;;;;0.65;0.40;;;21.70;63.30;;;;;;5051220;28;20052;-21
2022/07/01 08:04:48;;;;;;;1.30;0.73;;;21.70;63.00;;;;;;5023688;28;20290;-20
2022/07/01 08:07:14;;;;;;;1.35;0.65;;;21.80;63.10;;;;;;5049077;28;20052;-23
2022/07/01 08:09:45;;;;;;;1.10;0.43;;;21.80;63.00;;;;;;5051339;28;20171;-21
2022/07/01 08:12:11;;;;;;;0.82;0.50;;;21.80;62.90;;;;;;5049306;28;20079;-21
2022/07/01 08:14:36;;;;;;;0.98;0.43;;;21.80;62.80;;;;;;5044995;28;20083;-22
2022/07/01 08:17:02;;;;;;;1.08;0.50;;;21.90;62.70;;;;;;5033971;28;20056;-25
2022/07/01 08:19:28;;;;;;;1.48;0.75;;;21.90;62.70;;;;;;5051720;28;20048;-21
2022/07/01 08:21:53;;;;;;;1.00;0.77;;;21.90;62.50;;;;;;5052078;28;20041;-21
2022/07/01 08:24:19;;;;;;;0.47;0.30;;;21.90;62.40;;;;;;5040335;28;20048;-20
2022/07/01 08:26:44;;;;;;;1.10;0.50;;;21.90;62.30;;;;;;5047015;28;20146;-21
2022/07/01 08:29:10;;;;;;;1.02;0.60;;;22.00;62.20;;;;;;5032195;28;20046;-20
2022/07/01 08:31:35;;;;;;;0.63;0.50;;;22.00;62.10;;;;;;5032975;28;20051;-21
2022/07/01 08:34:02;;;;;;;0.80;0.40;;;22.00;62.10;;;;;;5059543;28;20040;-20
2022/07/01 08:36:27;;;;;;;0.90;0.50;;;22.00;62.80;;;;;;4353210;28;10000577;-19
2022/07/01 08:38:53;;;;;;;0.40;0.30;;;22.00;61.80;;;;;;5059872;28;20044;-18
2022/07/01 08:41:19;;;;;;;0.77;0.50;;;22.10;61.80;;;;;;5061649;28;20173;-18
2022/07/01 08:43:45;;;;;;;0.60;0.40;;;22.00;61.70;;;;;;5061166;28;20041;-18
2022/07/01 08:46:11;;;;;;;1.90;0.40;;;22.00;61.70;;;;;;5049048;28;20462;-19
2022/07/01 08:48:37;;;;;;;0.63;0.40;;;22.10;61.40;;;;;;5050528;28;20033;-20
2022/07/01 08:51:03;;;;;;;0.70;0.38;;;22.10;61.30;;;;;;5040142;28;20041;-20
2022/07/01 08:53:30;;;;;;;0.55;0.40;;;22.10;61.40;;;;;;5040401;28;20049;-18
2022/07/01 08:58:40;;;;;;;0.50;0.25;;;22.10;61.40;;;;;;5039455;28;20048;-19
2022/07/01 09:01:12;;;;;;;1.20;0.82;;;22.10;61.40;;;;;;5046118;28;20402;-18
2022/07/01 09:03:38;;;;;;;1.10;0.47;;;22.10;61.40;;;;;;5048254;28;20068;-19
2022/07/01 09:06:03;;;;;;;2.67;0.50;;;22.20;61.50;;;;;;5034612;28;20497;-20
2022/07/01 09:08:29;;;;;;;0.70;0.40;;;22.20;61.30;;;;;;5045574;28;20107;-19
2022/07/01 09:10:54;;;;;;;0.50;0.35;;;22.20;61.40;;;;;;5044577;28;20131;-26
2022/07/01 09:13:20;;;;;;;0.55;0.30;;;22.20;61.40;;;;;;5048569;28;20044;-24
2022/07/01 09:15:45;;;;;;;0.32;0.30;;;22.20;61.20;;;;;;5041370;28;20057;-19
2022/07/01 09:18:17;;;;;;;1.00;0.43;;;22.30;61.20;;;;;;5055875;28;20376;-20
2022/07/01 09:20:44;;;;;;;0.88;0.63;;;22.20;61.10;;;;;;5035641;28;20042;-19
2022/07/01 09:23:14;;;;;;;0.50;0.30;;;22.20;61.10;;;;;;5048331;28;20045;-20
2022/07/01 09:25:44;;;;;;;0.60;0.40;;;22.30;61.10;;;;;;5065484;28;20052;-20
2022/07/01 09:28:20;;;;;;;0.43;0.30;;;22.20;61.10;;;;;;5035028;28;20049;-19
2022/07/01 09:30:47;;;;;;;0.47;0.22;;;22.30;61.10;;;;;;5040764;28;20124;-18
2022/07/01 09:33:17;;;;;;;0.47;0.30;;;22.30;60.90;;;;;;5056579;28;20056;-18
2022/07/01 09:35:43;;;;;;;0.55;0.30;;;22.30;61.00;;;;;;5038902;28;20574;-19
2022/07/01 09:38:13;;;;;;;0.22;0.20;;;22.30;60.90;;;;;;5056647;28;20040;-20
2022/07/01 09:40:53;;;;;;;0.50;0.40;;;22.40;61.00;;;;;;5050633;28;20068;-19
2022/07/01 09:43:26;;;;;;;1.17;0.40;;;22.40;60.90;;;;;;5059815;28;20044;-25
2022/07/01 09:46:02;;;;;;;0.60;0.50;;;22.40;60.80;;;;;;5046039;28;20045;-18
2022/07/01 09:48:34;;;;;;;0.50;0.40;;;22.40;60.90;;;;;;5043341;28;20053;-18
2022/07/01 09:51:04;;;;;;;1.27;0.50;;;22.30;60.70;;;;;;5057126;28;20090;-18
2022/07/01 09:53:29;;;;;;;0.47;0.25;;;22.30;60.90;;;;;;4691207;28;10000176;-19
2022/07/01 09:55:55;;;;;;;0.57;0.35;;;22.30;60.90;;;;;;5055426;28;20068;-21
2022/07/01 09:58:20;;;;;;;0.85;0.30;;;22.30;60.90;;;;;;5050015;28;20045;-18
2022/07/01 10:00:46;;;;;;;0.55;0.30;;;22.20;60.90;;;;;;5034010;28;20545;-19
2022/07/01 10:03:12;;;;;;;0.95;0.60;;;22.20;60.90;;;;;;5027058;28;20045;-19
2022/07/01 10:05:51;;;;;;;0.40;0.30;;;22.20;60.70;;;;;;5032269;28;20041;-19
2022/07/01 10:08:26;;;;;;;0.75;0.47;;;22.20;60.80;;;;;;5020039;28;20045;-20
2022/07/01 10:11:14;;;;;;;0.60;0.40;;;22.30;60.90;;;;;;5053545;28;20041;-22
2022/07/01 10:13:41;;;;;;;0.30;0.30;;;22.30;60.60;;;;;;5049390;28;20082;-20
2022/07/01 10:16:07;;;;;;;0.32;0.20;;;22.30;60.50;;;;;;5042236;28;20041;-21
2022/07/01 10:18:32;;;;;;;0.22;0.20;;;22.30;60.40;;;;;;5035921;28;20052;-21
2022/07/01 10:20:58;;;;;;;0.47;0.22;;;22.30;60.50;;;;;;5050584;28;20048;-21
2022/07/01 10:23:28;;;;;;;0.52;0.47;;;22.30;60.60;;;;;;5048674;28;20072;-20
2022/07/01 10:25:54;;;;;;;0.68;0.30;;;22.30;60.40;;;;;;5049326;28;20045;-21
2022/07/01 10:28:26;;;;;;;0.65;0.25;;;22.30;60.60;;;;;;5051618;28;20056;-22
2022/07/01 10:30:52;;;;;;;0.20;0.20;;;22.20;60.70;;;;;;5055723;28;20044;-24
2022/07/01 10:33:31;;;;;;;0.35;0.20;;;22.30;60.70;;;;;;5046288;28;20551;-19
2022/07/01 10:36:04;;;;;;;0.60;0.38;;;22.30;60.50;;;;;;5035625;28;20151;-20
2022/07/01 10:38:29;;;;;;;0.38;0.30;;;22.20;60.50;;;;;;5051035;28;20033;-21
2022/07/01 10:40:55;;;;;;;0.85;0.45;;;22.30;60.30;;;;;;5053143;28;20047;-20
2022/07/01 10:43:34;;;;;;;0.40;0.35;;;22.30;60.10;;;;;;5056941;28;20047;-22
2022/07/01 10:45:59;;;;;;;0.40;0.20;;;22.30;59.80;;;;;;5048327;28;20477;-21
2022/07/01 10:48:25;;;;;;;0.32;0.25;;;22.40;59.70;;;;;;5057921;28;20065;-19
2022/07/01 10:50:51;;;;;;;0.30;0.30;;;22.40;59.50;;;;;;5047623;28;20501;-20
2022/07/01 10:53:18;;;;;;;0.20;0.20;;;22.40;59.40;;;;;;5058558;28;20143;-21
2022/07/01 10:55:49;;;;;;;0.40;0.20;;;22.40;59.50;;;;;;5061216;28;20103;-22
2022/07/01 10:58:18;;;;;;;0.40;0.30;;;22.40;59.40;;;;;;5058613;28;20033;-20
2022/07/01 11:00:45;;;;;;;0.32;0.30;;;22.40;59.50;;;;;;5058117;28;20049;-21
2022/07/01 11:03:20;;;;;;;1.35;0.30;;;22.30;59.40;;;;;;5058415;28;20101;-22
2022/07/01 11:05:45;;;;;;;;;;;22.30;59.50;;;;;;5058543;28;20045;-20
2022/07/01 11:08:11;;;;;;;0.50;0.20;;;22.30;59.30;;;;;;5052948;28;19916;-22
2022/07/01 11:10:38;;;;;;;0.35;0.30;;;22.30;59.30;;;;;;5047323;28;20534;-22
2022/07/01 11:13:04;;;;;;;0.25;0.20;;;22.30;59.30;;;;;;5058013;28;20048;-20
2022/07/01 11:15:30;;;;;;;1.00;0.35;;;22.30;58.90;;;;;;5052649;28;20069;-21
2022/07/01 11:17:56;;;;;;;0.15;0.10;;;22.30;59.00;;;;;;5042339;28;20088;-20
2022/07/01 11:20:23;;;;;;;0.52;0.20;;;22.30;58.80;;;;;;5059393;28;20566;-21
2022/07/01 11:22:48;;;;;;;0.93;0.17;;;22.30;58.70;;;;;;5061400;28;20048;-21
2022/07/01 11:25:14;;;;;;;0.60;0.30;;;22.30;58.40;;;;;;5061658;28;20074;-21
2022/07/01 11:27:40;;;;;;;0.40;0.20;;;22.30;58.30;;;;;;5051748;28;20539;-21
2022/07/01 11:30:12;;;;;;;0.28;0.15;;;22.30;59.10;;;;;;5046969;28;20517;-22
2022/07/01 11:32:41;;;;;;;0.25;0.13;;;22.30;58.20;;;;;;5035888;28;20057;-21
2022/07/01 11:39:21;;;;;;;0.32;0.20;;;22.30;57.80;;;;;;5054391;28;20700;-21
2022/07/01 11:40:51;;;;;;;0.47;0.10;;;22.30;57.90;;;;;;5058276;28;20463;-20
2022/07/01 11:43:26;;;;;;;0.50;0.20;;;22.20;57.20;;;;;;5060832;28;20040;-21
2022/07/01 11:45:52;;;;;;;0.55;0.20;;;22.20;57.50;;;;;;5048021;28;20037;-20
2022/07/01 11:48:32;;;;;;;0.40;0.10;;;22.20;57.40;;;;;;5058612;28;20253;-18
2022/07/01 11:50:58;;;;;;;2.63;0.20;;;22.20;57.40;;;;;;5060244;28;20044;-18
2022/07/01 11:53:24;;;;;;;0.32;0.20;;;22.20;57.30;;;;;;5054143;28;20378;-20
2022/07/01 11:55:49;;;;;;;0.25;0.25;;;22.20;57.20;;;;;;5055977;28;20691;-19
2022/07/01 11:58:15;;;;;;;0.15;0.10;;;22.20;57.10;;;;;;5054143;28;20047;-20
2022/07/01 12:00:41;;;;;;;0.50;0.32;;;22.20;56.80;;;;;;5058239;28;20079;-22
2022/07/01 12:03:07;;;;;;;0.95;0.13;;;22.30;57.00;;;;;;5054711;28;20041;-19
2022/07/01 12:05:33;;;;;;;0.28;0.10;;;22.20;56.80;;;;;;5060399;28;20051;-23
2022/07/01 12:07:58;;;;;;;0.10;0.10;;;22.20;56.30;;;;;;5046025;28;20040;-21
2022/07/01 12:10:25;;;;;;;0.50;0.28;;;22.20;56.70;;;;;;5024909;28;20049;-20
2022/07/01 12:12:52;;;;;;;0.65;0.20;;;22.20;56.70;;;;;;5051662;28;20094;-22
2022/07/01 12:15:18;;;;;;;0.25;0.20;;;22.20;56.70;;;;;;5046795;28;20513;-20
2022/07/01 12:17:43;;;;;;;0.10;0.10;;;22.20;55.90;;;;;;5037090;28;20048;-20
2022/07/01 12:20:09;;;;;;;0.30;0.20;;;22.20;55.90;;;;;;5056573;28;20057;-21
2022/07/01 12:22:34;;;;;;;0.35;0.20;;;22.20;56.20;;;;;;5043663;28;20049;-23
2022/07/01 12:25:06;;;;;;;0.25;0.10;;;22.20;55.60;;;;;;5040220;28;20432;-21
2022/07/01 12:27:33;;;;;;;0.30;0.10;;;22.20;56.00;;;;;;5035773;28;20131;-21
2022/07/01 12:29:59;;;;;;;0.10;0.10;;;22.20;54.10;;;;;;5032922;28;20044;-20
2022/07/01 12:32:26;;;;;;;0.30;0.10;;;22.20;54.10;;;;;;5048107;28;20071;-19
2022/07/01 12:34:55;;;;;;;0.00;0.00;;;22.20;53.40;;;;;;5051261;28;20044;-21
2022/07/01 12:37:34;;;;;;;0.77;0.20;;;22.20;53.30;;;;;;5052290;28;20052;-21
2022/07/01 12:40:19;;;;;;;0.28;0.10;;;22.20;54.20;;;;;;5044184;28;20060;-20
2022/07/01 12:42:45;;;;;;;0.30;0.17;;;22.20;54.50;;;;;;5052015;28;20037;-22
2022/07/01 12:45:12;;;;;;;0.10;0.05;;;22.20;53.70;;;;;;5045639;28;20906;-22
2022/07/01 12:47:38;;;;;;;0.28;0.10;;;22.20;53.70;;;;;;5059901;28;20109;-20
2022/07/01 12:50:10;;;;;;;0.05;0.00;;;22.20;54.30;;;;;;5044627;28;20041;-20
2022/07/01 12:52:36;;;;;;;0.30;0.10;;;22.20;54.40;;;;;;5030266;28;20080;-19
2022/07/01 12:55:16;;;;;;;0.40;0.10;;;22.20;53.90;;;;;;5034117;28;20041;-23
2022/07/01 12:57:42;;;;;;;0.10;0.10;;;22.20;53.40;;;;;;5045718;28;20068;-21
2022/07/01 13:00:08;;;;;;;0.30;0.10;;;22.20;54.00;;;;;;5037935;28;20072;-22